sensor_id;sensor_type;location;lat;lon;timestamp;pressure;altitude;pressure_sealevel;temperature;humidity
63808;BME280;49961;43.970;22.868;2023-05-11T00:00:30;101593.63;;;14.22;100.00
63808;BME280;49961;43.970;22.868;2023-05-11T00:01:31;101532.28;;;13.87;100.00
63808;BME280;49961;43.970;22.868;2023-05-11T00:02:32;101670.09;;;14.73;100.00
63808;BME280;49961;43.970;22.868;2023-05-11T00:03:33;101667.22;;;14.76;100.00
63808;BME280;49961;43.970;22.868;2023-05-11T00:04:33;101666.34;;;14.79;100.00
63808;BME280;49961;43.970;22.868;2023-05-11T00:05:34;101660.50;;;14.74;100.00
63808;BME280;49961;43.970;22.868;2023-05-11T00:06:34;101664.50;;;14.73;100.00
63808;BME280;49961;43.970;22.868;2023-05-11T00:07:34;101672.78;;;14.76;100.00
63808;BME280;49961;43.970;22.868;2023-05-11T00:08:35;101663.56;;;14.79;100.00
63808;BME280;49961;43.970;22.868;2023-05-11T00:09:36;101665.84;;;14.84;100.00
63808;BME280;49961;43.970;22.868;2023-05-11T00:10:37;101670.97;;;14.86;100.00
63808;BME280;49961;43.970;22.868;2023-05-11T00:11:38;101661.47;;;14.83;100.00
63808;BME280;49961;43.970;22.868;2023-05-11T00:12:38;101669.66;;;14.90;100.00
63808;BME280;49961;43.970;22.868;2023-05-11T00:13:39;101673.69;;;14.89;100.00
63808;BME280;49961;43.970;22.868;2023-05-11T00:14:39;101675.25;;;14.90;100.00
63808;BME280;49961;43.970;22.868;2023-05-11T00:15:40;101484.16;;;13.70;100.00
63808;BME280;49961;43.970;22.868;2023-05-11T00:16:40;101668.53;;;14.88;100.00
63808;BME280;49961;43.970;22.868;2023-05-11T00:17:41;101669.84;;;14.83;100.00
63808;BME280;49961;43.970;22.868;2023-05-11T00:18:41;101673.16;;;14.78;100.00
63808;BME280;49961;43.970;22.868;2023-05-11T00:19:41;101669.31;;;14.72;100.00
63808;BME280;49961;43.970;22.868;2023-05-11T00:20:42;101627.00;;;14.42;100.00
63808;BME280;49961;43.970;22.868;2023-05-11T00:21:42;101669.16;;;14.63;100.00
63808;BME280;49961;43.970;22.868;2023-05-11T00:22:42;101663.13;;;14.65;100.00
63808;BME280;49961;43.970;22.868;2023-05-11T00:23:43;101674.00;;;14.59;100.00
63808;BME280;49961;43.970;22.868;2023-05-11T00:24:43;101666.97;;;14.55;100.00
63808;BME280;49961;43.970;22.868;2023-05-11T00:25:44;101665.13;;;14.48;100.00
63808;BME280;49961;43.970;22.868;2023-05-11T00:26:44;101667.03;;;14.51;100.00
63808;BME280;49961;43.970;22.868;2023-05-11T00:27:45;101666.25;;;14.51;100.00
63808;BME280;49961;43.970;22.868;2023-05-11T00:28:45;101674.19;;;14.52;100.00
63808;BME280;49961;43.970;22.868;2023-05-11T00:29:46;101668.63;;;14.52;100.00
63808;BME280;49961;43.970;22.868;2023-05-11T00:30:46;101671.41;;;14.52;100.00
63808;BME280;49961;43.970;22.868;2023-05-11T00:31:46;101668.69;;;14.49;100.00
63808;BME280;49961;43.970;22.868;2023-05-11T00:32:48;101562.69;;;13.81;100.00
63808;BME280;49961;43.970;22.868;2023-05-11T00:33:50;101669.75;;;14.55;100.00
63808;BME280;49961;43.970;22.868;2023-05-11T00:34:51;101659.03;;;14.53;100.00
63808;BME280;49961;43.970;22.868;2023-05-11T00:35:51;101658.31;;;14.49;100.00
63808;BME280;49961;43.970;22.868;2023-05-11T00:36:51;101661.72;;;14.41;100.00
63808;BME280;49961;43.970;22.868;2023-05-11T00:37:52;101626.84;;;14.13;100.00
63808;BME280;49961;43.970;22.868;2023-05-11T00:38:52;101664.56;;;14.37;100.00
63808;BME280;49961;43.970;22.868;2023-05-11T00:39:53;101665.28;;;14.41;100.00
63808;BME280;49961;43.970;22.868;2023-05-11T00:40:53;101662.50;;;14.41;100.00
63808;BME280;49961;43.970;22.868;2023-05-11T00:41:54;101644.16;;;14.24;100.00
63808;BME280;49961;43.970;22.868;2023-05-11T00:42:54;101548.81;;;13.62;100.00
63808;BME280;49961;43.970;22.868;2023-05-11T00:43:55;101659.78;;;14.38;100.00
63808;BME280;49961;43.970;22.868;2023-05-11T00:44:55;101664.91;;;14.39;100.00
63808;BME280;49961;43.970;22.868;2023-05-11T00:45:56;101652.38;;;14.31;100.00
63808;BME280;49961;43.970;22.868;2023-05-11T00:46:57;101666.44;;;14.44;100.00
63808;BME280;49961;43.970;22.868;2023-05-11T00:47:57;101672.78;;;14.44;100.00
63808;BME280;49961;43.970;22.868;2023-05-11T00:48:58;101673.28;;;14.39;100.00
63808;BME280;49961;43.970;22.868;2023-05-11T00:49:58;101667.56;;;14.46;100.00
63808;BME280;49961;43.970;22.868;2023-05-11T00:50:59;101572.81;;;13.91;100.00
63808;BME280;49961;43.970;22.868;2023-05-11T00:52:00;101671.50;;;14.49;100.00
63808;BME280;49961;43.970;22.868;2023-05-11T00:53:02;101668.53;;;14.56;100.00
63808;BME280;49961;43.970;22.868;2023-05-11T00:54:02;101664.41;;;14.60;100.00
63808;BME280;49961;43.970;22.868;2023-05-11T00:55:03;101670.09;;;14.57;100.00
63808;BME280;49961;43.970;22.868;2023-05-11T00:56:03;101674.88;;;14.56;100.00
63808;BME280;49961;43.970;22.868;2023-05-11T00:57:04;101669.03;;;14.51;100.00
63808;BME280;49961;43.970;22.868;2023-05-11T00:58:05;101669.81;;;14.51;100.00
63808;BME280;49961;43.970;22.868;2023-05-11T00:59:06;101656.13;;;14.41;100.00
63808;BME280;49961;43.970;22.868;2023-05-11T01:00:07;101656.41;;;14.46;100.00
63808;BME280;49961;43.970;22.868;2023-05-11T01:01:08;101667.56;;;14.46;100.00
63808;BME280;49961;43.970;22.868;2023-05-11T01:02:08;101669.91;;;14.48;100.00
63808;BME280;49961;43.970;22.868;2023-05-11T01:03:09;101672.00;;;14.44;100.00
63808;BME280;49961;43.970;22.868;2023-05-11T01:04:10;101662.50;;;14.41;100.00
63808;BME280;49961;43.970;22.868;2023-05-11T01:05:11;101672.34;;;14.46;100.00
63808;BME280;49961;43.970;22.868;2023-05-11T01:07:27;101664.50;;;14.41;100.00
63808;BME280;49961;43.970;22.868;2023-05-11T01:09:53;101666.59;;;14.53;100.00
63808;BME280;49961;43.970;22.868;2023-05-11T01:11:09;101669.81;;;14.51;100.00
63808;BME280;49961;43.970;22.868;2023-05-11T01:12:14;101671.56;;;14.45;100.00
63808;BME280;49961;43.970;22.868;2023-05-11T01:13:25;101678.63;;;14.50;100.00
63808;BME280;49961;43.970;22.868;2023-05-11T01:14:38;101669.91;;;14.48;100.00
63808;BME280;49961;43.970;22.868;2023-05-11T01:16:43;101670.94;;;14.54;100.00
63808;BME280;49961;43.970;22.868;2023-05-11T01:18:24;101679.84;;;14.49;100.00
63808;BME280;49961;43.970;22.868;2023-05-11T01:20:35;101670.59;;;14.36;100.00
63808;BME280;49961;43.970;22.868;2023-05-11T01:21:35;101675.88;;;14.30;100.00
63808;BME280;49961;43.970;22.868;2023-05-11T01:22:43;101675.53;;;14.28;100.00
63808;BME280;49961;43.970;22.868;2023-05-11T01:26:33;101673.81;;;14.15;100.00
63808;BME280;49961;43.970;22.868;2023-05-11T01:28:33;101521.63;;;13.11;100.00
63808;BME280;49961;43.970;22.868;2023-05-11T01:31:47;101670.75;;;14.09;100.00
63808;BME280;49961;43.970;22.868;2023-05-11T01:32:49;101674.03;;;14.04;100.00
63808;BME280;49961;43.970;22.868;2023-05-11T01:34:09;101543.41;;;13.16;100.00
63808;BME280;49961;43.970;22.868;2023-05-11T01:35:20;101675.75;;;13.98;100.00
63808;BME280;49961;43.970;22.868;2023-05-11T01:36:24;101677.31;;;13.99;100.00
63808;BME280;49961;43.970;22.868;2023-05-11T01:37:30;101679.84;;;13.94;100.00
63808;BME280;49961;43.970;22.868;2023-05-11T01:38:34;101679.78;;;13.97;100.00
63808;BME280;49961;43.970;22.868;2023-05-11T01:39:39;101621.72;;;13.57;100.00
63808;BME280;49961;43.970;22.868;2023-05-11T01:40:43;101681.00;;;13.96;100.00
63808;BME280;49961;43.970;22.868;2023-05-11T01:41:54;101669.41;;;13.98;100.00
63808;BME280;49961;43.970;22.868;2023-05-11T01:43:03;101666.00;;;13.90;100.00
63808;BME280;49961;43.970;22.868;2023-05-11T01:44:06;101689.78;;;13.95;100.00
63808;BME280;49961;43.970;22.868;2023-05-11T01:45:10;101672.06;;;13.85;100.00
63808;BME280;49961;43.970;22.868;2023-05-11T01:46:13;101676.69;;;13.92;100.00
63808;BME280;49961;43.970;22.868;2023-05-11T01:47:15;101654.00;;;13.74;100.00
63808;BME280;49961;43.970;22.868;2023-05-11T01:48:20;101678.34;;;13.89;100.00
63808;BME280;49961;43.970;22.868;2023-05-11T01:49:21;101678.28;;;13.93;100.00
63808;BME280;49961;43.970;22.868;2023-05-11T01:50:24;101675.63;;;13.86;100.00
63808;BME280;49961;43.970;22.868;2023-05-11T01:51:28;101680.34;;;13.89;100.00
63808;BME280;49961;43.970;22.868;2023-05-11T01:52:30;101675.03;;;13.94;100.00
63808;BME280;49961;43.970;22.868;2023-05-11T01:53:34;101687.56;;;13.86;100.00
63808;BME280;49961;43.970;22.868;2023-05-11T01:54:37;101679.34;;;13.79;100.00
63808;BME280;49961;43.970;22.868;2023-05-11T01:55:39;101695.72;;;13.77;100.00
63808;BME280;49961;43.970;22.868;2023-05-11T01:56:42;101677.00;;;13.78;100.00
63808;BME280;49961;43.970;22.868;2023-05-11T01:57:44;101655.72;;;13.68;100.00
63808;BME280;49961;43.970;22.868;2023-05-11T01:58:45;101665.97;;;13.71;100.00
63808;BME280;49961;43.970;22.868;2023-05-11T01:59:48;101683.72;;;13.80;100.00
63808;BME280;49961;43.970;22.868;2023-05-11T02:00:50;101689.72;;;13.79;100.00
63808;BME280;49961;43.970;22.868;2023-05-11T02:01:51;101679.84;;;13.74;100.00
63808;BME280;49961;43.970;22.868;2023-05-11T02:02:53;101680.28;;;13.73;100.00
63808;BME280;49961;43.970;22.868;2023-05-11T02:03:55;101681.47;;;13.72;100.00
63808;BME280;49961;43.970;22.868;2023-05-11T02:04:58;101690.06;;;13.81;100.00
63808;BME280;49961;43.970;22.868;2023-05-11T02:06:02;101688.00;;;13.85;100.00
63808;BME280;49961;43.970;22.868;2023-05-11T02:07:05;101684.88;;;13.83;100.00
63808;BME280;49961;43.970;22.868;2023-05-11T02:08:07;101688.72;;;13.89;100.00
63808;BME280;49961;43.970;22.868;2023-05-11T02:09:09;101675.22;;;13.68;100.00
63808;BME280;49961;43.970;22.868;2023-05-11T02:10:12;101679.78;;;13.78;100.00
63808;BME280;49961;43.970;22.868;2023-05-11T02:11:15;101688.84;;;13.82;100.00
63808;BME280;49961;43.970;22.868;2023-05-11T02:12:18;101683.00;;;13.76;100.00
63808;BME280;49961;43.970;22.868;2023-05-11T02:13:19;101716.28;;;13.83;100.00
63808;BME280;49961;43.970;22.868;2023-05-11T02:14:22;101684.84;;;14.02;100.00
63808;BME280;49961;43.970;22.868;2023-05-11T02:15:24;101691.06;;;13.90;100.00
63808;BME280;49961;43.970;22.868;2023-05-11T02:16:25;101680.44;;;13.85;100.00
63808;BME280;49961;43.970;22.868;2023-05-11T02:17:29;101665.25;;;13.67;100.00
63808;BME280;49961;43.970;22.868;2023-05-11T02:18:31;101693.13;;;13.86;100.00
63808;BME280;49961;43.970;22.868;2023-05-11T02:19:35;101693.41;;;13.92;100.00
63808;BME280;49961;43.970;22.868;2023-05-11T02:20:38;101688.28;;;13.90;100.00
63808;BME280;49961;43.970;22.868;2023-05-11T02:21:42;101693.78;;;13.94;100.00
63808;BME280;49961;43.970;22.868;2023-05-11T02:24:04;101615.13;;;13.47;100.00
63808;BME280;49961;43.970;22.868;2023-05-11T02:25:07;101702.06;;;13.97;100.00
63808;BME280;49961;43.970;22.868;2023-05-11T02:26:08;101699.44;;;13.90;100.00
63808;BME280;49961;43.970;22.868;2023-05-11T02:27:10;101701.84;;;13.88;100.00
63808;BME280;49961;43.970;22.868;2023-05-11T02:28:12;101694.72;;;13.87;100.00
63808;BME280;49961;43.970;22.868;2023-05-11T02:29:12;101703.56;;;13.82;100.00
63808;BME280;49961;43.970;22.868;2023-05-11T02:30:13;101706.78;;;13.81;100.00
63808;BME280;49961;43.970;22.868;2023-05-11T02:31:17;101703.06;;;13.87;100.00
63808;BME280;49961;43.970;22.868;2023-05-11T02:32:20;101699.06;;;13.88;100.00
63808;BME280;49961;43.970;22.868;2023-05-11T02:33:33;101704.22;;;13.90;100.00
63808;BME280;49961;43.970;22.868;2023-05-11T02:34:42;101704.50;;;13.95;100.00
63808;BME280;49961;43.970;22.868;2023-05-11T02:35:43;101725.50;;;14.00;100.00
63808;BME280;49961;43.970;22.868;2023-05-11T02:36:44;101713.06;;;14.04;100.00
63808;BME280;49961;43.970;22.868;2023-05-11T02:37:46;101708.34;;;14.01;100.00
63808;BME280;49961;43.970;22.868;2023-05-11T02:38:49;101707.28;;;13.95;100.00
63808;BME280;49961;43.970;22.868;2023-05-11T02:40:06;101589.13;;;13.15;100.00
63808;BME280;49961;43.970;22.868;2023-05-11T02:41:16;101715.19;;;13.97;100.00
63808;BME280;49961;43.970;22.868;2023-05-11T02:42:19;101566.28;;;13.04;100.00
63808;BME280;49961;43.970;22.868;2023-05-11T02:43:23;101708.28;;;13.85;100.00
63808;BME280;49961;43.970;22.868;2023-05-11T02:44:27;101631.19;;;13.40;100.00
63808;BME280;49961;43.970;22.868;2023-05-11T02:45:31;101708.47;;;13.94;100.00
63808;BME280;49961;43.970;22.868;2023-05-11T02:46:35;101710.78;;;13.99;100.00
63808;BME280;49961;43.970;22.868;2023-05-11T02:47:46;101665.06;;;13.77;100.00
63808;BME280;49961;43.970;22.868;2023-05-11T02:48:51;101715.06;;;14.04;100.00
63808;BME280;49961;43.970;22.868;2023-05-11T02:49:54;101713.13;;;14.01;100.00
63808;BME280;49961;43.970;22.868;2023-05-11T02:50:57;101711.22;;;13.98;100.00
63808;BME280;49961;43.970;22.868;2023-05-11T02:52:01;101715.91;;;14.01;100.00
63808;BME280;49961;43.970;22.868;2023-05-11T02:53:06;101716.72;;;14.01;100.00
63808;BME280;49961;43.970;22.868;2023-05-11T02:54:11;101628.56;;;13.52;100.00
63808;BME280;49961;43.970;22.868;2023-05-11T02:55:14;101712.56;;;14.09;100.00
63808;BME280;49961;43.970;22.868;2023-05-11T02:56:16;101675.63;;;13.86;100.00
63808;BME280;49961;43.970;22.868;2023-05-11T02:57:17;101710.13;;;14.11;100.00
63808;BME280;49961;43.970;22.868;2023-05-11T02:58:18;101715.84;;;14.04;100.00
63808;BME280;49961;43.970;22.868;2023-05-11T02:59:19;101715.56;;;13.99;100.00
63808;BME280;49961;43.970;22.868;2023-05-11T03:00:20;101721.91;;;13.99;100.00
63808;BME280;49961;43.970;22.868;2023-05-11T03:01:20;101636.16;;;13.52;100.00
63808;BME280;49961;43.970;22.868;2023-05-11T03:02:21;101688.50;;;13.80;100.00
63808;BME280;49961;43.970;22.868;2023-05-11T03:03:22;101674.97;;;13.78;100.00
63808;BME280;49961;43.970;22.868;2023-05-11T03:04:22;101724.84;;;14.12;100.00
63808;BME280;49961;43.970;22.868;2023-05-11T03:05:23;101586.16;;;13.25;100.00
63808;BME280;49961;43.970;22.868;2023-05-11T03:06:24;101721.22;;;14.15;100.00
63808;BME280;49961;43.970;22.868;2023-05-11T03:07:24;101720.41;;;14.14;100.00
63808;BME280;49961;43.970;22.868;2023-05-11T03:08:25;101719.13;;;14.19;100.00
63808;BME280;49961;43.970;22.868;2023-05-11T03:09:26;101730.59;;;14.24;100.00
63808;BME280;49961;43.970;22.868;2023-05-11T03:10:26;101726.88;;;14.31;100.00
63808;BME280;49961;43.970;22.868;2023-05-11T03:11:28;101701.78;;;14.11;100.00
63808;BME280;49961;43.970;22.868;2023-05-11T03:12:29;101736.97;;;14.25;100.00
63808;BME280;49961;43.970;22.868;2023-05-11T03:13:33;101730.16;;;14.26;100.00
63808;BME280;49961;43.970;22.868;2023-05-11T03:14:34;101728.59;;;14.25;100.00
63808;BME280;49961;43.970;22.868;2023-05-11T03:15:36;101584.84;;;13.30;100.00
63808;BME280;49961;43.970;22.868;2023-05-11T03:16:37;101732.44;;;14.31;100.00
63808;BME280;49961;43.970;22.868;2023-05-11T03:17:39;101733.88;;;14.19;100.00
63808;BME280;49961;43.970;22.868;2023-05-11T03:18:41;101732.28;;;14.18;100.00
63808;BME280;49961;43.970;22.868;2023-05-11T03:19:42;101733.44;;;14.21;100.00
63808;BME280;49961;43.970;22.868;2023-05-11T03:20:43;101727.63;;;14.12;100.00
63808;BME280;49961;43.970;22.868;2023-05-11T03:21:45;101574.94;;;13.09;100.00
63808;BME280;49961;43.970;22.868;2023-05-11T03:22:47;101734.44;;;14.11;100.00
63808;BME280;49961;43.970;22.868;2023-05-11T03:23:48;101732.34;;;14.15;100.00
63808;BME280;49961;43.970;22.868;2023-05-11T03:24:50;101628.97;;;13.31;100.00
63808;BME280;49961;43.970;22.868;2023-05-11T03:25:51;101737.72;;;14.06;100.00
63808;BME280;49961;43.970;22.868;2023-05-11T03:26:53;101732.56;;;14.04;100.00
63808;BME280;49961;43.970;22.868;2023-05-11T03:27:56;101734.50;;;14.07;100.00
63808;BME280;49961;43.970;22.868;2023-05-11T03:28:58;101715.56;;;13.99;100.00
63808;BME280;49961;43.970;22.868;2023-05-11T03:30:02;101725.28;;;14.10;100.00
63808;BME280;49961;43.970;22.868;2023-05-11T03:31:04;101746.16;;;14.22;100.00
63808;BME280;49961;43.970;22.868;2023-05-11T03:32:04;101754.91;;;14.24;100.00
63808;BME280;49961;43.970;22.868;2023-05-11T03:33:05;101672.34;;;13.71;100.00
63808;BME280;49961;43.970;22.868;2023-05-11T03:34:05;101738.78;;;14.12;100.00
63808;BME280;49961;43.970;22.868;2023-05-11T03:35:06;101743.44;;;14.18;100.00
63808;BME280;49961;43.970;22.868;2023-05-11T03:36:09;101747.81;;;14.19;100.00
63808;BME280;49961;43.970;22.868;2023-05-11T03:37:11;101735.56;;;14.13;100.00
63808;BME280;49961;43.970;22.868;2023-05-11T03:38:14;101746.72;;;14.13;100.00
63808;BME280;49961;43.970;22.868;2023-05-11T03:39:15;101755.59;;;14.08;100.00
63808;BME280;49961;43.970;22.868;2023-05-11T03:40:18;101749.38;;;14.01;100.00
63808;BME280;49961;43.970;22.868;2023-05-11T03:41:19;101752.88;;;14.05;100.00
63808;BME280;49961;43.970;22.868;2023-05-11T03:42:21;101747.31;;;14.05;100.00
63808;BME280;49961;43.970;22.868;2023-05-11T03:43:23;101756.47;;;14.05;100.00
63808;BME280;49961;43.970;22.868;2023-05-11T03:44:26;101759.75;;;14.00;100.00
63808;BME280;49961;43.970;22.868;2023-05-11T03:45:28;101759.38;;;13.98;100.00
63808;BME280;49961;43.970;22.868;2023-05-11T03:46:31;101696.44;;;13.62;100.00
63808;BME280;49961;43.970;22.868;2023-05-11T03:47:32;101740.44;;;13.70;100.00
63808;BME280;49961;43.970;22.868;2023-05-11T03:48:33;101755.16;;;13.90;100.00
63808;BME280;49961;43.970;22.868;2023-05-11T03:49:35;101759.22;;;13.86;100.00
63808;BME280;49961;43.970;22.868;2023-05-11T03:50:37;101760.13;;;13.79;100.00
63808;BME280;49961;43.970;22.868;2023-05-11T03:51:38;101767.78;;;13.75;100.00
63808;BME280;49961;43.970;22.868;2023-05-11T03:52:40;101758.56;;;13.78;100.00
63808;BME280;49961;43.970;22.868;2023-05-11T03:53:41;101762.56;;;13.77;100.00
63808;BME280;49961;43.970;22.868;2023-05-11T03:54:42;101748.47;;;13.65;100.00
63808;BME280;49961;43.970;22.868;2023-05-11T03:55:42;101754.72;;;13.72;100.00
63808;BME280;49961;43.970;22.868;2023-05-11T03:56:43;101719.28;;;13.30;100.00
63808;BME280;49961;43.970;22.868;2023-05-11T03:57:44;101753.81;;;13.56;100.00
63808;BME280;49961;43.970;22.868;2023-05-11T03:58:45;101760.13;;;13.60;100.00
63808;BME280;49961;43.970;22.868;2023-05-11T03:59:46;101763.63;;;13.64;100.00
63808;BME280;49961;43.970;22.868;2023-05-11T04:00:46;101741.25;;;13.48;100.00
63808;BME280;49961;43.970;22.868;2023-05-11T04:01:47;101765.69;;;13.60;100.00
63808;BME280;49961;43.970;22.868;2023-05-11T04:02:53;101763.88;;;13.50;100.00
63808;BME280;49961;43.970;22.868;2023-05-11T04:03:53;101761.50;;;13.48;100.00
63808;BME280;49961;43.970;22.868;2023-05-11T04:04:54;101757.53;;;13.49;100.00
63808;BME280;49961;43.970;22.868;2023-05-11T04:05:54;101765.03;;;13.52;100.00
63808;BME280;49961;43.970;22.868;2023-05-11T04:06:56;101762.63;;;13.54;100.00
63808;BME280;49961;43.970;22.868;2023-05-11T04:07:56;101762.31;;;13.49;100.00
63808;BME280;49961;43.970;22.868;2023-05-11T04:08:57;101762.16;;;13.56;100.00
63808;BME280;49961;43.970;22.868;2023-05-11T04:09:57;101770.84;;;13.61;100.00
63808;BME280;49961;43.970;22.868;2023-05-11T04:10:58;101759.16;;;13.47;100.00
63808;BME280;49961;43.970;22.868;2023-05-11T04:11:58;101766.31;;;13.48;100.00
63808;BME280;49961;43.970;22.868;2023-05-11T04:12:58;101765.81;;;13.53;100.00
63808;BME280;49961;43.970;22.868;2023-05-11T04:13:59;101762.63;;;13.54;100.00
63808;BME280;49961;43.970;22.868;2023-05-11T04:14:59;101769.25;;;13.60;100.00
63808;BME280;49961;43.970;22.868;2023-05-11T04:16:00;101781.84;;;13.68;100.00
63808;BME280;49961;43.970;22.868;2023-05-11T04:17:00;101774.13;;;13.76;100.00
63808;BME280;49961;43.970;22.868;2023-05-11T04:18:01;101773.84;;;13.70;100.00
63808;BME280;49961;43.970;22.868;2023-05-11T04:19:01;101770.00;;;13.64;100.00
63808;BME280;49961;43.970;22.868;2023-05-11T04:20:01;101778.69;;;13.66;100.00
63808;BME280;49961;43.970;22.868;2023-05-11T04:21:02;101775.56;;;13.64;100.00
63808;BME280;49961;43.970;22.868;2023-05-11T04:22:03;101772.53;;;13.55;100.00
63808;BME280;49961;43.970;22.868;2023-05-11T04:23:03;101772.88;;;13.57;100.00
63808;BME280;49961;43.970;22.868;2023-05-11T04:24:03;101773.84;;;13.70;100.00
63808;BME280;49961;43.970;22.868;2023-05-11T04:25:05;101769.38;;;13.76;100.00
63808;BME280;49961;43.970;22.868;2023-05-11T04:26:06;101774.78;;;13.83;100.00
63808;BME280;49961;43.970;22.868;2023-05-11T04:27:06;101771.81;;;13.94;100.00
63808;BME280;49961;43.970;22.868;2023-05-11T04:28:07;101778.94;;;13.95;100.00
63808;BME280;49961;43.970;22.868;2023-05-11T04:29:07;101772.16;;;13.96;100.00
63808;BME280;49961;43.970;22.868;2023-05-11T04:30:08;101782.09;;;13.97;100.00
63808;BME280;49961;43.970;22.868;2023-05-11T04:31:08;101715.44;;;13.44;100.00
63808;BME280;49961;43.970;22.868;2023-05-11T04:32:09;101786.72;;;13.84;100.00
63808;BME280;49961;43.970;22.868;2023-05-11T04:33:09;101775.88;;;13.89;100.00
63808;BME280;49961;43.970;22.868;2023-05-11T04:34:11;101780.44;;;13.99;100.00
63808;BME280;49961;43.970;22.868;2023-05-11T04:35:12;101775.66;;;14.00;100.00
63808;BME280;49961;43.970;22.868;2023-05-11T04:36:12;101783.69;;;13.98;100.00
63808;BME280;49961;43.970;22.868;2023-05-11T04:37:12;101773.72;;;13.97;100.00
63808;BME280;49961;43.970;22.868;2023-05-11T04:38:13;101773.72;;;13.97;100.00
63808;BME280;49961;43.970;22.868;2023-05-11T04:39:14;101774.03;;;14.02;100.00
63808;BME280;49961;43.970;22.868;2023-05-11T04:40:16;101724.13;;;13.69;100.00
63808;BME280;49961;43.970;22.868;2023-05-11T04:41:16;101783.22;;;13.99;100.00
63808;BME280;49961;43.970;22.868;2023-05-11T04:42:16;101778.13;;;13.98;100.00
63808;BME280;49961;43.970;22.868;2023-05-11T04:43:17;101732.91;;;13.67;100.00
63808;BME280;49961;43.970;22.868;2023-05-11T04:44:17;101810.41;;;13.95;100.00
63808;BME280;49961;43.970;22.868;2023-05-11T04:45:18;101786.72;;;13.84;100.00
63808;BME280;49961;43.970;22.868;2023-05-11T04:46:18;101791.09;;;13.85;100.00
63808;BME280;49961;43.970;22.868;2023-05-11T04:47:19;101748.38;;;13.49;100.00
63808;BME280;49961;43.970;22.868;2023-05-11T04:48:19;101771.25;;;13.60;100.00
63808;BME280;49961;43.970;22.868;2023-05-11T04:49:20;101788.88;;;13.76;100.00
63808;BME280;49961;43.970;22.868;2023-05-11T04:50:21;101775.34;;;13.75;100.00
63808;BME280;49961;43.970;22.868;2023-05-11T04:51:21;101800.09;;;13.92;100.00
63808;BME280;49961;43.970;22.868;2023-05-11T04:52:22;101787.25;;;13.98;100.00
63808;BME280;49961;43.970;22.868;2023-05-11T04:53:22;101794.25;;;14.06;100.00
63808;BME280;49961;43.970;22.868;2023-05-11T04:54:23;101791.47;;;14.06;100.00
63808;BME280;49961;43.970;22.868;2023-05-11T04:55:23;101791.47;;;14.06;100.00
63808;BME280;49961;43.970;22.868;2023-05-11T04:56:23;101727.19;;;13.55;100.00
63808;BME280;49961;43.970;22.868;2023-05-11T04:57:25;101788.72;;;13.83;100.00
63808;BME280;49961;43.970;22.868;2023-05-11T04:58:25;101836.31;;;13.92;100.00
63808;BME280;49961;43.970;22.868;2023-05-11T04:59:26;101797.47;;;13.85;100.00
63808;BME280;49961;43.970;22.868;2023-05-11T05:00:26;101796.66;;;13.85;100.00
63808;BME280;49961;43.970;22.868;2023-05-11T05:01:27;101632.31;;;12.77;100.00
63808;BME280;49961;43.970;22.868;2023-05-11T05:02:27;101807.63;;;13.95;100.00
63808;BME280;49961;43.970;22.868;2023-05-11T05:03:28;101799.78;;;13.87;100.00
63808;BME280;49961;43.970;22.868;2023-05-11T05:04:28;101808.59;;;13.85;100.00
63808;BME280;49961;43.970;22.868;2023-05-11T05:05:29;101808.47;;;13.92;100.00
63808;BME280;49961;43.970;22.868;2023-05-11T05:06:29;101803.88;;;14.02;100.00
63808;BME280;49961;43.970;22.868;2023-05-11T05:07:31;101809.28;;;14.12;100.00
63808;BME280;49961;43.970;22.868;2023-05-11T05:08:31;101807.97;;;14.17;100.00
63808;BME280;49961;43.970;22.868;2023-05-11T05:09:32;101806.91;;;14.11;100.00
63808;BME280;49961;43.970;22.868;2023-05-11T05:10:32;101807.97;;;14.17;100.00
63808;BME280;49961;43.970;22.868;2023-05-11T05:11:33;101811.44;;;14.24;100.00
63808;BME280;49961;43.970;22.868;2023-05-11T05:12:36;101791.16;;;14.24;100.00
63808;BME280;49961;43.970;22.868;2023-05-11T05:13:36;101820.81;;;14.34;100.00
63808;BME280;49961;43.970;22.868;2023-05-11T05:14:37;101809.50;;;14.41;100.00
63808;BME280;49961;43.970;22.868;2023-05-11T05:15:37;101805.72;;;14.51;100.00
63808;BME280;49961;43.970;22.868;2023-05-11T05:16:37;101812.19;;;14.64;100.00
63808;BME280;49961;43.970;22.868;2023-05-11T05:17:38;101808.63;;;14.63;100.00
63808;BME280;49961;43.970;22.868;2023-05-11T05:18:38;101812.81;;;14.71;100.00
63808;BME280;49961;43.970;22.868;2023-05-11T05:19:39;101811.47;;;14.79;100.00
63808;BME280;49961;43.970;22.868;2023-05-11T05:20:39;101806.41;;;14.74;100.00
63808;BME280;49961;43.970;22.868;2023-05-11T05:21:40;101810.63;;;14.63;100.00
63808;BME280;49961;43.970;22.868;2023-05-11T05:22:40;101812.34;;;14.57;100.00
63808;BME280;49961;43.970;22.868;2023-05-11T05:23:41;101821.78;;;14.63;100.00
63808;BME280;49961;43.970;22.868;2023-05-11T05:24:41;101818.41;;;14.71;100.00
63808;BME280;49961;43.970;22.868;2023-05-11T05:25:41;101787.16;;;14.60;100.00
63808;BME280;49961;43.970;22.868;2023-05-11T05:26:42;101810.75;;;14.75;100.00
63808;BME280;49961;43.970;22.868;2023-05-11T05:27:42;101765.69;;;14.41;100.00